Time;durP1;ratioP1;P1;durP2;ratioP2;P2;SDS_P1;SDS_P2;PMS_P1;PMS_P2;Temp;Humidity;BMP_temperature;BMP_pressure;BME280_temperature;BME280_humidity;BME280_pressure;Samples;Min_cycle;Max_cycle;Signal;HPM_P1;HPM_P2
2022/04/29 00:00:38;;;;;;;28.83;11.43;;;;;;;;;;5032380;28;20203;-70
2022/04/29 00:03:07;;;;;;;26.30;11.60;;;;;;;;;;5032006;28;20201;-70
2022/04/29 00:05:35;;;;;;;26.80;11.17;;;;;;;;;;5031986;28;20691;-70
2022/04/29 00:08:03;;;;;;;26.40;11.27;;;;;;;;;;5032031;28;20434;-70
2022/04/29 00:10:30;;;;;;;28.27;10.87;;;;;;;;;;5031904;28;20445;-70
2022/04/29 00:12:59;;;;;;;26.97;12.20;;;;;;;;;;5032222;28;20442;-70
2022/04/29 00:15:29;;;;;;;26.73;10.63;;;;;;;;;;5031804;28;20896;-70
2022/04/29 00:17:57;;;;;;;26.17;10.50;;;;;;;;;;5032008;28;20829;-70
2022/04/29 00:20:24;;;;;;;28.43;11.47;;;;;;;;;;5031688;28;20928;-70
2022/04/29 00:22:52;;;;;;;28.42;11.32;;;;;;;;;;5031744;28;20452;-70
2022/04/29 00:25:19;;;;;;;28.50;11.73;;;;;;;;;;5031424;28;20198;-70
2022/04/29 00:27:47;;;;;;;27.70;11.40;;;;;;;;;;5031740;28;20443;-70
2022/04/29 00:30:15;;;;;;;25.63;9.77;;;;;;;;;;5031845;28;20506;-70
2022/04/29 00:32:45;;;;;;;27.80;10.03;;;;;;;;;;5031842;28;20529;-70
2022/04/29 00:35:13;;;;;;;27.80;10.67;;;;;;;;;;5031867;28;20830;-70
2022/04/29 00:37:44;;;;;;;23.20;9.93;;;;;;;;;;5035686;28;20478;-70
2022/04/29 00:40:15;;;;;;;26.38;10.52;;;;;;;;;;5035661;28;20943;-70
2022/04/29 00:42:43;;;;;;;22.77;7.87;;;;;;;;;;5035848;28;20625;-70
2022/04/29 00:45:11;;;;;;;25.80;9.63;;;;;;;;;;5035775;28;20443;-70
2022/04/29 00:47:38;;;;;;;26.13;9.57;;;;;;;;;;5035453;28;20524;-70
2022/04/29 00:50:08;;;;;;;27.97;9.17;;;;;;;;;;5035545;28;20447;-70
2022/04/29 00:52:37;;;;;;;27.30;8.95;;;;;;;;;;5036047;28;20473;-70
2022/04/29 00:55:06;;;;;;;24.80;10.33;;;;;;;;;;5035963;28;20200;-70
2022/04/29 00:57:38;;;;;;;26.70;9.98;;;;;;;;;;5035313;28;20447;-70
2022/04/29 01:00:08;;;;;;;25.83;9.57;;;;;;;;;;5035194;28;20682;-70
2022/04/29 01:02:36;;;;;;;26.00;10.67;;;;;;;;;;5035664;28;20300;-70
2022/04/29 01:05:05;;;;;;;24.55;10.18;;;;;;;;;;5035338;28;20525;-70
2022/04/29 01:07:34;;;;;;;24.77;10.05;;;;;;;;;;5034926;28;20230;-69
2022/04/29 01:10:02;;;;;;;28.58;9.65;;;;;;;;;;5035297;28;20199;-70
2022/04/29 01:12:32;;;;;;;22.80;8.73;;;;;;;;;;5035213;28;20654;-70
2022/04/29 01:15:02;;;;;;;24.85;9.82;;;;;;;;;;5035143;28;20446;-70
2022/04/29 01:17:30;;;;;;;25.83;9.70;;;;;;;;;;5035376;28;20207;-70
2022/04/29 01:20:01;;;;;;;24.92;9.68;;;;;;;;;;5034885;28;20586;-70
2022/04/29 01:22:30;;;;;;;26.08;10.00;;;;;;;;;;5035283;28;20226;-70
2022/04/29 01:24:58;;;;;;;23.45;9.07;;;;;;;;;;5035401;28;20210;-70
2022/04/29 01:27:26;;;;;;;24.17;9.70;;;;;;;;;;5034644;28;20283;-70
2022/04/29 01:29:57;;;;;;;26.13;10.05;;;;;;;;;;5034974;28;20304;-70
2022/04/29 01:32:25;;;;;;;25.52;10.07;;;;;;;;;;5035091;28;20195;-70
2022/04/29 01:34:52;;;;;;;26.88;9.60;;;;;;;;;;5034709;28;20204;-70
2022/04/29 01:37:20;;;;;;;24.90;9.95;;;;;;;;;;5034522;28;20329;-70
2022/04/29 01:39:48;;;;;;;24.98;9.70;;;;;;;;;;5034714;28;20660;-70
2022/04/29 01:42:17;;;;;;;23.85;10.13;;;;;;;;;;5034543;28;20203;-70
2022/04/29 01:44:45;;;;;;;23.27;9.07;;;;;;;;;;5034531;28;20203;-70
2022/04/29 01:47:13;;;;;;;23.63;9.50;;;;;;;;;;5034160;28;20484;-70
2022/04/29 01:49:40;;;;;;;28.10;9.20;;;;;;;;;;5034813;28;20484;-70
2022/04/29 01:52:08;;;;;;;23.43;9.67;;;;;;;;;;5034659;28;20554;-70
2022/04/29 01:54:36;;;;;;;22.40;8.23;;;;;;;;;;5034354;28;20450;-70
2022/04/29 01:57:05;;;;;;;24.52;9.55;;;;;;;;;;5034250;28;20442;-70
2022/04/29 01:59:33;;;;;;;21.85;9.25;;;;;;;;;;5033823;28;20222;-70
2022/04/29 02:02:02;;;;;;;20.63;8.70;;;;;;;;;;5034677;28;20285;-70
2022/04/29 02:04:29;;;;;;;23.00;8.18;;;;;;;;;;5034219;28;20299;-70
2022/04/29 02:06:57;;;;;;;24.33;9.77;;;;;;;;;;5034029;28;20726;-70
2022/04/29 02:09:24;;;;;;;23.15;9.02;;;;;;;;;;5033773;28;20199;-70
2022/04/29 02:12:07;;;;;;;25.77;9.35;;;;;;;;;;5034022;28;20656;-70
2022/04/29 02:14:37;;;;;;;25.92;10.32;;;;;;;;;;5034187;28;20736;-70
2022/04/29 02:17:06;;;;;;;22.73;8.73;;;;;;;;;;5034109;28;20229;-70
2022/04/29 02:19:33;;;;;;;27.00;11.68;;;;;;;;;;5033741;28;20198;-70
2022/04/29 02:22:02;;;;;;;23.90;10.05;;;;;;;;;;5033814;28;20198;-70
2022/04/29 02:24:29;;;;;;;27.63;10.63;;;;;;;;;;5033907;28;20194;-70
2022/04/29 02:26:59;;;;;;;23.13;9.57;;;;;;;;;;5033980;28;20232;-70
2022/04/29 02:29:27;;;;;;;28.33;10.18;;;;;;;;;;5033595;28;20216;-70
2022/04/29 02:31:56;;;;;;;25.58;9.45;;;;;;;;;;5033908;28;20252;-70
2022/04/29 02:34:24;;;;;;;28.35;10.63;;;;;;;;;;5033715;28;20210;-70
2022/04/29 02:36:51;;;;;;;29.50;10.93;;;;;;;;;;5033761;28;20234;-70
2022/04/29 02:39:19;;;;;;;25.00;9.80;;;;;;;;;;5033682;28;20199;-70
2022/04/29 02:41:47;;;;;;;26.85;9.85;;;;;;;;;;5033617;28;20205;-69
2022/04/29 02:44:15;;;;;;;26.33;8.93;;;;;;;;;;5033641;28;20659;-70
2022/04/29 02:49:26;;;;;;;27.88;9.93;;;;;;;;;;5032793;28;20210;-70
2022/04/29 02:51:54;;;;;;;27.65;10.82;;;;;;;;;;5033359;28;20198;-70
2022/04/29 02:54:22;;;;;;;27.75;10.00;;;;;;;;;;5033345;28;20202;-70
2022/04/29 02:56:50;;;;;;;28.45;10.52;;;;;;;;;;5033347;28;20203;-70
2022/04/29 02:59:18;;;;;;;28.83;11.02;;;;;;;;;;5031802;28;20222;-70
2022/04/29 03:01:46;;;;;;;30.42;11.85;;;;;;;;;;5033253;28;20660;-70
2022/04/29 03:04:14;;;;;;;31.20;11.38;;;;;;;;;;5033026;28;20202;-70
2022/04/29 03:06:43;;;;;;;29.65;11.63;;;;;;;;;;5033163;28;20288;-70
2022/04/29 03:09:11;;;;;;;27.17;10.35;;;;;;;;;;5032823;28;20206;-71
2022/04/29 03:11:39;;;;;;;28.83;11.25;;;;;;;;;;5032883;28;20208;-70
2022/04/29 03:14:06;;;;;;;26.23;10.20;;;;;;;;;;5032739;28;20194;-70
2022/04/29 03:16:34;;;;;;;28.52;10.38;;;;;;;;;;5033158;28;20631;-70
2022/04/29 03:19:01;;;;;;;35.03;11.48;;;;;;;;;;5032950;28;20198;-70
2022/04/29 03:21:28;;;;;;;30.23;11.57;;;;;;;;;;5032656;28;20204;-70
2022/04/29 03:23:58;;;;;;;30.63;12.18;;;;;;;;;;5032661;28;20202;-70
2022/04/29 03:26:25;;;;;;;30.27;11.73;;;;;;;;;;5032673;28;20206;-70
2022/04/29 03:28:53;;;;;;;31.25;12.13;;;;;;;;;;5032567;28;20202;-69
2022/04/29 03:31:21;;;;;;;27.92;11.05;;;;;;;;;;5032643;28;20713;-70
2022/04/29 03:33:48;;;;;;;31.50;11.82;;;;;;;;;;5032553;28;20240;-69
2022/04/29 03:36:15;;;;;;;31.08;13.30;;;;;;;;;;5032887;28;20583;-70
2022/04/29 03:38:43;;;;;;;31.98;11.98;;;;;;;;;;5032424;28;20249;-70
2022/04/29 03:41:13;;;;;;;32.60;12.48;;;;;;;;;;5032075;28;20205;-71
2022/04/29 03:43:41;;;;;;;29.42;11.80;;;;;;;;;;5033150;28;20202;-70
2022/04/29 03:46:08;;;;;;;33.58;13.30;;;;;;;;;;5033002;28;20194;-70
2022/04/29 03:51:17;;;;;;;47.97;19.42;;;;;;;;;;5031889;28;20291;-70
2022/04/29 03:53:44;;;;;;;40.53;15.93;;;;;;;;;;5032291;28;20210;-70
2022/04/29 03:56:14;;;;;;;39.28;15.32;;;;;;;;;;5032264;28;20199;-70
2022/04/29 03:58:41;;;;;;;33.03;13.63;;;;;;;;;;5031841;28;20224;-70
2022/04/29 04:01:09;;;;;;;36.42;13.40;;;;;;;;;;5032163;28;20202;-70
2022/04/29 04:03:37;;;;;;;29.73;11.88;;;;;;;;;;5032045;28;20205;-70
2022/04/29 04:08:49;;;;;;;30.98;12.02;;;;;;;;;;5032355;28;20275;-70
2022/04/29 04:11:18;;;;;;;29.48;11.60;;;;;;;;;;5030770;28;20206;-70
2022/04/29 04:13:46;;;;;;;31.42;12.45;;;;;;;;;;5031918;28;20206;-70
2022/04/29 04:16:14;;;;;;;34.90;12.57;;;;;;;;;;5031996;28;20656;-70
2022/04/29 04:18:41;;;;;;;31.20;12.70;;;;;;;;;;5032018;28;20206;-70
2022/04/29 04:21:09;;;;;;;25.60;10.60;;;;;;;;;;5032153;28;20206;-70
2022/04/29 04:23:36;;;;;;;31.00;11.77;;;;;;;;;;5031895;28;20197;-70
2022/04/29 04:26:04;;;;;;;26.33;10.52;;;;;;;;;;5031988;28;20198;-70
2022/04/29 04:28:34;;;;;;;29.52;10.70;;;;;;;;;;5031652;28;20229;-70
2022/04/29 04:31:01;;;;;;;30.55;12.40;;;;;;;;;;5031702;28;20202;-71
2022/04/29 04:33:28;;;;;;;31.17;12.02;;;;;;;;;;5031521;28;20194;-70
2022/04/29 04:35:56;;;;;;;27.88;12.02;;;;;;;;;;5031671;28;20712;-70
2022/04/29 04:38:26;;;;;;;35.17;13.85;;;;;;;;;;5031717;28;20203;-70
2022/04/29 04:40:55;;;;;;;30.90;13.53;;;;;;;;;;5032114;28;20256;-70
2022/04/29 04:43:23;;;;;;;30.60;12.20;;;;;;;;;;5031368;28;20440;-70
2022/04/29 04:45:53;;;;;;;29.87;13.17;;;;;;;;;;5031823;28;20453;-70
2022/04/29 04:48:21;;;;;;;28.47;11.07;;;;;;;;;;5031728;28;20489;-70
2022/04/29 04:50:48;;;;;;;36.20;13.60;;;;;;;;;;5031560;28;20457;-70
2022/04/29 04:53:16;;;;;;;31.90;12.87;;;;;;;;;;5031262;28;20463;-70
2022/04/29 04:55:43;;;;;;;28.03;13.20;;;;;;;;;;5031542;28;20459;-70
2022/04/29 04:58:11;;;;;;;27.80;12.03;;;;;;;;;;5031045;28;20466;-70
2022/04/29 05:00:39;;;;;;;26.40;10.97;;;;;;;;;;5031723;28;20450;-70
2022/04/29 05:03:09;;;;;;;30.00;13.17;;;;;;;;;;5031708;28;20950;-70
2022/04/29 05:05:36;;;;;;;30.47;13.50;;;;;;;;;;5031565;28;20449;-70
2022/04/29 05:08:04;;;;;;;29.40;12.30;;;;;;;;;;5031464;28;20486;-70
2022/04/29 05:10:31;;;;;;;32.90;11.60;;;;;;;;;;5031320;28;20446;-70
2022/04/29 05:12:59;;;;;;;29.77;12.07;;;;;;;;;;5031340;28;20438;-70
2022/04/29 05:15:26;;;;;;;32.20;11.30;;;;;;;;;;5031316;28;20526;-70
2022/04/29 05:17:53;;;;;;;32.40;12.90;;;;;;;;;;5031365;28;20456;-70
2022/04/29 05:20:23;;;;;;;27.10;11.30;;;;;;;;;;5031732;28;20447;-70
2022/04/29 05:22:51;;;;;;;28.10;11.20;;;;;;;;;;5034014;28;20791;-70
2022/04/29 05:25:18;;;;;;;28.80;12.70;;;;;;;;;;5034574;28;20455;-70
2022/04/29 05:27:46;;;;;;;32.40;11.97;;;;;;;;;;5035241;28;20472;-71
2022/04/29 05:30:13;;;;;;;23.47;10.53;;;;;;;;;;5034971;28;20811;-70
2022/04/29 05:32:41;;;;;;;25.70;11.00;;;;;;;;;;5034879;28;20819;-70
2022/04/29 05:35:10;;;;;;;26.90;11.43;;;;;;;;;;5034716;28;20448;-70
2022/04/29 05:37:40;;;;;;;24.90;9.93;;;;;;;;;;5034528;28;20488;-71
2022/04/29 05:42:54;;;;;;;25.17;10.83;;;;;;;;;;5034885;28;20550;-70
2022/04/29 05:45:22;;;;;;;24.40;10.70;;;;;;;;;;5034489;28;20440;-70
2022/04/29 05:47:49;;;;;;;24.97;11.00;;;;;;;;;;5034531;28;20477;-70
2022/04/29 05:50:16;;;;;;;24.73;10.97;;;;;;;;;;5034342;28;20964;-71
2022/04/29 05:52:46;;;;;;;40.87;12.00;;;;;;;;;;5034375;28;20451;-70
2022/04/29 05:55:13;;;;;;;24.83;10.97;;;;;;;;;;5034536;28;20563;-70
2022/04/29 05:57:41;;;;;;;26.40;10.13;;;;;;;;;;5034450;28;20445;-71
2022/04/29 06:00:09;;;;;;;26.93;10.43;;;;;;;;;;5034104;28;20536;-70
2022/04/29 06:02:38;;;;;;;24.33;9.97;;;;;;;;;;5034270;28;20520;-70
2022/04/29 06:05:06;;;;;;;26.40;11.20;;;;;;;;;;5034561;28;20441;-70
2022/04/29 06:07:33;;;;;;;24.47;10.17;;;;;;;;;;5034163;28;20905;-71
2022/04/29 06:10:02;;;;;;;24.67;10.20;;;;;;;;;;5034348;28;20451;-70
2022/04/29 06:12:30;;;;;;;25.20;9.97;;;;;;;;;;5034108;28;20451;-71
2022/04/29 06:14:57;;;;;;;24.77;10.77;;;;;;;;;;5034288;28;20467;-71
2022/04/29 06:17:25;;;;;;;24.53;10.37;;;;;;;;;;5033668;28;20445;-71
2022/04/29 06:19:53;;;;;;;25.17;10.10;;;;;;;;;;5034178;28;20436;-71
2022/04/29 06:22:20;;;;;;;26.97;11.10;;;;;;;;;;5034607;28;20437;-71
2022/04/29 06:24:47;;;;;;;24.83;10.83;;;;;;;;;;5033846;28;20441;-71
2022/04/29 06:27:18;;;;;;;24.43;10.33;;;;;;;;;;5033518;28;20451;-70
2022/04/29 06:29:47;;;;;;;24.27;10.07;;;;;;;;;;5033832;28;20834;-71
2022/04/29 06:32:14;;;;;;;24.60;10.27;;;;;;;;;;5033615;28;20799;-71
2022/04/29 06:34:43;;;;;;;22.10;9.60;;;;;;;;;;5033054;28;20498;-72
2022/04/29 06:37:10;;;;;;;21.73;8.77;;;;;;;;;;5033740;28;20546;-72
2022/04/29 06:39:38;;;;;;;24.67;9.97;;;;;;;;;;5033505;28;20988;-71
2022/04/29 06:42:05;;;;;;;25.10;10.27;;;;;;;;;;5033594;28;20446;-71
2022/04/29 06:44:35;;;;;;;24.63;9.43;;;;;;;;;;5033370;28;20503;-71
2022/04/29 06:47:02;;;;;;;25.00;10.20;;;;;;;;;;5033511;28;20458;-71
2022/04/29 06:49:30;;;;;;;22.90;9.43;;;;;;;;;;5033377;28;20487;-71
2022/04/29 06:51:58;;;;;;;21.57;9.30;;;;;;;;;;5033466;28;20451;-71
2022/04/29 06:54:25;;;;;;;26.00;10.43;;;;;;;;;;5033227;28;20999;-71
2022/04/29 06:56:53;;;;;;;22.80;10.20;;;;;;;;;;5033120;28;20452;-72
2022/04/29 06:59:20;;;;;;;23.13;8.87;;;;;;;;;;5032557;28;20468;-71
2022/04/29 07:01:50;;;;;;;23.13;9.27;;;;;;;;;;5033104;28;20448;-71
2022/04/29 07:04:17;;;;;;;22.57;9.07;;;;;;;;;;5033010;28;20977;-71
2022/04/29 07:06:44;;;;;;;22.93;9.57;;;;;;;;;;5033182;28;20460;-71
2022/04/29 07:09:12;;;;;;;20.77;9.20;;;;;;;;;;5032706;28;20478;-72
2022/04/29 07:11:40;;;;;;;22.83;8.53;;;;;;;;;;5033055;28;20887;-71
2022/04/29 07:14:08;;;;;;;22.93;9.60;;;;;;;;;;5033168;28;20442;-71
2022/04/29 07:16:35;;;;;;;22.47;9.07;;;;;;;;;;5032867;28;20522;-71
2022/04/29 07:19:04;;;;;;;21.17;8.90;;;;;;;;;;5032732;28;20451;-72
2022/04/29 07:21:32;;;;;;;23.30;9.53;;;;;;;;;;5032334;28;20445;-71
2022/04/29 07:23:59;;;;;;;21.80;8.67;;;;;;;;;;5032701;28;20446;-71
2022/04/29 07:26:27;;;;;;;24.80;10.20;;;;;;;;;;5033016;28;20597;-71
2022/04/29 07:28:54;;;;;;;25.60;11.03;;;;;;;;;;5032582;28;20489;-72
2022/04/29 07:31:22;;;;;;;25.57;10.67;;;;;;;;;;5032424;28;20441;-71
2022/04/29 07:33:49;;;;;;;24.73;9.73;;;;;;;;;;5032594;28;20536;-71
2022/04/29 07:42:03;;;;;;;26.70;11.27;;;;;;;;;;5032407;28;20433;-71
2022/04/29 07:44:31;;;;;;;24.53;11.70;;;;;;;;;;5032195;28;20467;-71
2022/04/29 07:46:58;;;;;;;27.50;11.63;;;;;;;;;;5032202;28;20453;-71
2022/04/29 07:49:25;;;;;;;30.17;13.20;;;;;;;;;;5032391;28;20498;-71
2022/04/29 07:51:55;;;;;;;30.37;13.40;;;;;;;;;;5032539;28;20449;-71
2022/04/29 07:54:23;;;;;;;26.20;11.80;;;;;;;;;;5032164;28;20958;-71
2022/04/29 07:56:52;;;;;;;28.80;12.80;;;;;;;;;;5032177;28;20437;-71
2022/04/29 07:59:20;;;;;;;27.27;13.20;;;;;;;;;;5031423;28;20467;-71
2022/04/29 08:01:48;;;;;;;28.00;12.20;;;;;;;;;;5032290;28;20449;-71
2022/04/29 08:04:15;;;;;;;29.23;13.17;;;;;;;;;;5032285;28;20503;-71
2022/04/29 08:06:43;;;;;;;25.17;10.50;;;;;;;;;;5032247;28;20437;-71
2022/04/29 08:09:12;;;;;;;29.00;12.47;;;;;;;;;;5031594;28;20480;-71
2022/04/29 08:11:39;;;;;;;26.27;11.90;;;;;;;;;;5031961;28;20942;-71
2022/04/29 08:14:07;;;;;;;27.57;11.87;;;;;;;;;;5031969;28;20445;-71
2022/04/29 08:16:35;;;;;;;26.80;13.80;;;;;;;;;;5031958;28;21006;-72
2022/04/29 08:19:03;;;;;;;26.00;11.80;;;;;;;;;;5031994;28;20488;-71
2022/04/29 08:21:30;;;;;;;30.10;13.43;;;;;;;;;;5031888;28;20523;-71
2022/04/29 08:23:58;;;;;;;30.60;12.67;;;;;;;;;;5031749;28;20916;-71
2022/04/29 08:26:28;;;;;;;28.63;13.20;;;;;;;;;;5031713;28;20445;-72
2022/04/29 08:28:56;;;;;;;28.30;13.23;;;;;;;;;;5031742;28;20476;-72
2022/04/29 08:31:24;;;;;;;26.83;12.90;;;;;;;;;;5031554;28;20989;-71
2022/04/29 08:33:51;;;;;;;26.83;12.60;;;;;;;;;;5032118;28;20490;-71
2022/04/29 08:36:19;;;;;;;24.90;12.03;;;;;;;;;;5032045;28;20990;-72
2022/04/29 08:38:46;;;;;;;24.67;11.47;;;;;;;;;;5031762;28;20474;-72
2022/04/29 08:41:14;;;;;;;27.97;14.07;;;;;;;;;;5031415;28;20450;-71
2022/04/29 08:43:44;;;;;;;28.20;13.60;;;;;;;;;;5031983;28;20465;-71
2022/04/29 08:46:12;;;;;;;27.73;13.50;;;;;;;;;;5031787;28;20436;-71
2022/04/29 08:48:41;;;;;;;29.77;14.30;;;;;;;;;;5031685;28;20512;-72
2022/04/29 08:51:09;;;;;;;27.07;14.57;;;;;;;;;;5031803;28;20432;-71
2022/04/29 08:53:37;;;;;;;27.63;13.60;;;;;;;;;;5031627;28;20958;-71
2022/04/29 08:58:51;;;;;;;27.47;13.70;;;;;;;;;;5035293;28;20479;-71
2022/04/29 09:01:21;;;;;;;28.27;14.60;;;;;;;;;;5035443;28;20515;-71
2022/04/29 09:03:49;;;;;;;55.03;18.07;;;;;;;;;;5035410;28;20528;-72
2022/04/29 09:06:17;;;;;;;30.07;14.60;;;;;;;;;;5035314;28;20444;-71
2022/04/29 09:08:46;;;;;;;27.97;13.57;;;;;;;;;;5035119;28;20476;-71
2022/04/29 09:11:21;;;;;;;27.97;16.03;;;;;;;;;;5035190;28;20635;-71
2022/04/29 09:13:49;;;;;;;33.40;16.07;;;;;;;;;;5035204;28;20562;-71
2022/04/29 09:16:18;;;;;;;30.83;15.73;;;;;;;;;;5035179;28;20443;-71
2022/04/29 09:18:46;;;;;;;28.17;15.20;;;;;;;;;;5035228;28;20496;-71
2022/04/29 09:21:14;;;;;;;30.37;14.80;;;;;;;;;;5034721;28;20532;-71
2022/04/29 09:23:44;;;;;;;31.40;15.87;;;;;;;;;;5035164;28;20441;-72
2022/04/29 09:26:20;;;;;;;26.60;14.17;;;;;;;;;;5035132;28;20461;-72
2022/04/29 09:28:49;;;;;;;32.50;14.07;;;;;;;;;;5034877;28;20484;-72
2022/04/29 09:31:19;;;;;;;26.97;14.13;;;;;;;;;;5034717;28;20535;-71
2022/04/29 09:33:55;;;;;;;26.03;14.17;;;;;;;;;;5034728;28;20456;-71
2022/04/29 09:36:24;;;;;;;30.33;14.90;;;;;;;;;;5034554;28;20549;-72
2022/04/29 09:41:37;;;;;;;25.07;13.23;;;;;;;;;;5034745;28;20482;-72
2022/04/29 09:44:05;;;;;;;24.87;12.10;;;;;;;;;;5034724;28;20444;-72
2022/04/29 09:46:39;;;;;;;25.90;12.77;;;;;;;;;;5034606;28;20447;-71
2022/04/29 09:49:07;;;;;;;23.73;11.00;;;;;;;;;;5034500;28;21077;-72
2022/04/29 09:51:42;;;;;;;22.90;10.63;;;;;;;;;;5034856;28;20513;-72
2022/04/29 09:54:11;;;;;;;21.00;8.73;;;;;;;;;;5034350;28;20428;-71
2022/04/29 09:56:39;;;;;;;23.23;10.20;;;;;;;;;;5034364;28;20572;-72
2022/04/29 09:59:07;;;;;;;23.70;10.10;;;;;;;;;;5034181;28;20464;-72
2022/04/29 10:01:37;;;;;;;23.50;11.80;;;;;;;;;;5034297;28;20446;-72
2022/04/29 10:04:05;;;;;;;24.37;11.30;;;;;;;;;;5034392;28;20448;-72
2022/04/29 10:06:34;;;;;;;24.90;9.83;;;;;;;;;;5034242;28;20455;-72
2022/04/29 10:09:02;;;;;;;21.03;9.40;;;;;;;;;;5034408;28;20550;-72
2022/04/29 10:11:31;;;;;;;21.33;9.53;;;;;;;;;;5033858;28;20930;-72
2022/04/29 10:14:03;;;;;;;22.87;10.60;;;;;;;;;;5034373;28;20465;-72
2022/04/29 10:16:34;;;;;;;22.33;10.03;;;;;;;;;;5034136;28;20453;-72
2022/04/29 10:21:53;;;;;;;23.23;10.10;;;;;;;;;;5034213;28;20511;-72
2022/04/29 10:24:24;;;;;;;23.17;11.00;;;;;;;;;;5034236;28;20449;-72
2022/04/29 10:26:54;;;;;;;22.07;9.70;;;;;;;;;;5033874;28;20451;-72
2022/04/29 10:29:21;;;;;;;20.17;8.57;;;;;;;;;;5033486;28;20853;-72
2022/04/29 10:32:03;;;;;;;27.20;9.97;;;;;;;;;;5033784;28;20961;-72
2022/04/29 10:34:34;;;;;;;19.50;7.97;;;;;;;;;;5034386;28;20473;-72
2022/04/29 10:37:03;;;;;;;21.60;8.67;;;;;;;;;;5034128;28;20935;-72
2022/04/29 10:39:30;;;;;;;20.73;8.17;;;;;;;;;;5033488;28;20458;-71
2022/04/29 10:42:06;;;;;;;18.73;7.63;;;;;;;;;;5033475;28;20442;-72
2022/04/29 10:44:34;;;;;;;18.30;6.70;;;;;;;;;;5033618;28;20503;-71
2022/04/29 10:47:20;;;;;;;17.17;6.70;;;;;;;;;;5033639;28;20485;-72
2022/04/29 10:49:49;;;;;;;17.80;6.50;;;;;;;;;;5033648;28;20841;-72
2022/04/29 10:52:26;;;;;;;19.13;6.90;;;;;;;;;;5033369;28;20457;-73
2022/04/29 10:54:57;;;;;;;20.43;7.20;;;;;;;;;;5033450;28;20438;-71
2022/04/29 10:57:38;;;;;;;18.07;6.20;;;;;;;;;;5033170;28;20442;-71
2022/04/29 11:00:16;;;;;;;16.47;5.00;;;;;;;;;;5032828;28;20473;-71
2022/04/29 11:02:43;;;;;;;19.30;6.53;;;;;;;;;;5033133;28;20980;-71
2022/04/29 11:05:32;;;;;;;19.30;6.90;;;;;;;;;;5033146;28;20810;-72
2022/04/29 11:08:06;;;;;;;19.67;7.20;;;;;;;;;;5033198;28;20436;-72
2022/04/29 11:10:53;;;;;;;19.83;6.40;;;;;;;;;;5032924;28;21013;-72
2022/04/29 11:13:23;;;;;;;19.40;7.27;;;;;;;;;;5032681;28;20443;-72
2022/04/29 11:15:51;;;;;;;19.03;7.13;;;;;;;;;;5033536;28;20510;-72
2022/04/29 11:18:23;;;;;;;22.93;7.30;;;;;;;;;;5033006;28;20448;-72
2022/04/29 11:20:57;;;;;;;18.20;6.90;;;;;;;;;;5032378;28;20444;-72
2022/04/29 11:26:13;;;;;;;18.47;6.37;;;;;;;;;;5032848;28;20420;-72
2022/04/29 11:28:42;;;;;;;19.63;6.50;;;;;;;;;;5032579;28;20444;-72
2022/04/29 11:31:10;;;;;;;17.80;6.50;;;;;;;;;;5032598;28;20456;-72
2022/04/29 11:33:37;;;;;;;18.27;6.87;;;;;;;;;;5032612;28;20980;-72
2022/04/29 11:36:07;;;;;;;16.90;5.70;;;;;;;;;;5032442;28;21006;-73
2022/04/29 11:38:41;;;;;;;16.77;5.80;;;;;;;;;;5032432;28;20447;-72
2022/04/29 11:41:08;;;;;;;19.90;6.57;;;;;;;;;;5032365;28;20443;-72
2022/04/29 11:43:36;;;;;;;17.50;6.17;;;;;;;;;;5032581;28;20438;-72
2022/04/29 11:46:06;;;;;;;17.70;6.27;;;;;;;;;;5032733;28;20447;-72
2022/04/29 11:48:35;;;;;;;18.27;6.77;;;;;;;;;;5032130;28;20446;-72
2022/04/29 11:51:04;;;;;;;16.90;5.80;;;;;;;;;;5032212;28;20473;-72
2022/04/29 11:53:34;;;;;;;17.97;6.77;;;;;;;;;;5032385;28;20437;-72
2022/04/29 11:56:01;;;;;;;18.10;6.63;;;;;;;;;;5032033;28;20450;-72
2022/04/29 11:58:37;;;;;;;19.20;6.33;;;;;;;;;;5031820;28;20468;-72
2022/04/29 12:01:06;;;;;;;16.20;4.50;;;;;;;;;;5032260;28;20452;-71
2022/04/29 12:03:33;;;;;;;17.30;5.40;;;;;;;;;;5031746;28;20461;-72
2022/04/29 12:06:01;;;;;;;15.80;5.20;;;;;;;;;;5032176;28;20445;-72
2022/04/29 12:08:40;;;;;;;17.50;4.77;;;;;;;;;;5032087;28;20452;-71
2022/04/29 12:11:09;;;;;;;18.60;3.60;;;;;;;;;;5031907;28;20492;-71
2022/04/29 12:13:36;;;;;;;20.30;6.20;;;;;;;;;;5032177;28;20456;-72
2022/04/29 12:16:04;;;;;;;20.67;5.90;;;;;;;;;;5031915;28;20527;-72
2022/04/29 12:18:43;;;;;;;16.73;5.27;;;;;;;;;;5032066;28;20969;-71
2022/04/29 12:21:10;;;;;;;17.80;5.43;;;;;;;;;;5031744;28;20449;-73
2022/04/29 12:23:38;;;;;;;17.93;5.07;;;;;;;;;;5031832;28;20959;-72
2022/04/29 12:26:07;;;;;;;16.27;5.33;;;;;;;;;;5031916;28;20815;-72
2022/04/29 12:28:37;;;;;;;17.20;5.93;;;;;;;;;;5031867;28;20822;-71
2022/04/29 12:36:49;;;;;;;15.90;5.10;;;;;;;;;;5036186;28;20910;-71
2022/04/29 12:39:20;;;;;;;15.07;4.70;;;;;;;;;;5035584;28;20954;-71
2022/04/29 12:41:57;;;;;;;18.40;5.23;;;;;;;;;;5036275;28;20474;-72
2022/04/29 12:47:24;;;;;;;22.27;5.60;;;;;;;;;;5035590;28;20941;-71
2022/04/29 12:49:52;;;;;;;16.33;4.67;;;;;;;;;;5035762;28;20476;-72
2022/04/29 12:52:20;;;;;;;15.50;4.43;;;;;;;;;;5035823;28;20470;-72
2022/04/29 12:54:47;;;;;;;18.00;5.40;;;;;;;;;;5035566;28;20445;-71
2022/04/29 12:57:16;;;;;;;21.13;5.60;;;;;;;;;;5035189;28;20459;-72
2022/04/29 12:59:45;;;;;;;18.30;5.30;;;;;;;;;;5035722;28;20483;-72
2022/04/29 13:02:12;;;;;;;18.27;4.60;;;;;;;;;;5035320;28;20451;-72
2022/04/29 13:04:40;;;;;;;17.03;4.33;;;;;;;;;;5035583;28;20444;-72
2022/04/29 13:07:07;;;;;;;16.10;5.23;;;;;;;;;;5035241;28;20452;-71
2022/04/29 13:09:35;;;;;;;14.57;4.30;;;;;;;;;;5035176;28;20508;-72
2022/04/29 13:12:02;;;;;;;15.67;4.90;;;;;;;;;;5035217;28;20480;-71
2022/04/29 13:14:31;;;;;;;19.50;4.80;;;;;;;;;;5035587;28;20510;-71
2022/04/29 13:16:59;;;;;;;19.90;5.47;;;;;;;;;;5035515;28;20448;-72
2022/04/29 13:19:26;;;;;;;16.93;4.70;;;;;;;;;;5034756;28;20437;-72
2022/04/29 13:21:54;;;;;;;20.40;4.20;;;;;;;;;;5035012;28;20441;-71
2022/04/29 13:24:22;;;;;;;16.47;4.97;;;;;;;;;;5034941;28;20506;-72
2022/04/29 13:26:49;;;;;;;16.60;5.00;;;;;;;;;;5035272;28;20480;-72
2022/04/29 13:29:17;;;;;;;15.20;4.23;;;;;;;;;;5034725;28;20453;-72
2022/04/29 13:31:46;;;;;;;15.20;4.67;;;;;;;;;;5034811;28;20440;-71
2022/04/29 13:34:14;;;;;;;16.00;4.60;;;;;;;;;;5034879;28;20441;-72
2022/04/29 13:36:41;;;;;;;19.03;4.90;;;;;;;;;;5034712;28;20567;-72
2022/04/29 13:39:09;;;;;;;16.50;4.80;;;;;;;;;;5034792;28;20991;-72
2022/04/29 13:41:37;;;;;;;15.87;4.80;;;;;;;;;;5034600;28;20514;-71
2022/04/29 13:44:04;;;;;;;17.40;4.27;;;;;;;;;;5034291;28;20440;-71
2022/04/29 13:46:32;;;;;;;14.60;3.77;;;;;;;;;;5034740;28;20441;-72
2022/04/29 13:49:01;;;;;;;15.00;3.70;;;;;;;;;;5034465;28;20504;-71
2022/04/29 13:51:29;;;;;;;15.60;4.33;;;;;;;;;;5034220;28;20491;-72
2022/04/29 13:53:56;;;;;;;16.73;4.30;;;;;;;;;;5034647;28;20451;-72
2022/04/29 13:56:23;;;;;;;15.90;4.27;;;;;;;;;;5034662;28;20455;-72
2022/04/29 13:58:51;;;;;;;17.03;4.20;;;;;;;;;;5034238;28;20457;-72
2022/04/29 14:01:20;;;;;;;19.73;4.50;;;;;;;;;;5034014;28;20449;-72
2022/04/29 14:03:47;;;;;;;17.30;4.50;;;;;;;;;;5034458;28;20448;-72
2022/04/29 14:06:16;;;;;;;15.43;4.20;;;;;;;;;;5034194;28;20464;-72
2022/04/29 14:08:44;;;;;;;19.83;4.40;;;;;;;;;;5034345;28;20444;-72
2022/04/29 14:11:13;;;;;;;15.73;4.60;;;;;;;;;;5034041;28;20511;-72
2022/04/29 14:13:41;;;;;;;15.03;3.90;;;;;;;;;;5034329;28;20452;-72
2022/04/29 14:16:08;;;;;;;14.50;3.67;;;;;;;;;;5034039;28;20440;-72
2022/04/29 14:18:36;;;;;;;15.93;4.57;;;;;;;;;;5033982;28;20476;-71
2022/04/29 14:21:03;;;;;;;15.67;4.60;;;;;;;;;;5033961;28;20455;-71
2022/04/29 14:23:33;;;;;;;15.87;4.60;;;;;;;;;;5034055;28;20536;-72
2022/04/29 14:26:00;;;;;;;19.80;4.13;;;;;;;;;;5034168;28;20436;-72
2022/04/29 14:28:28;;;;;;;27.40;4.27;;;;;;;;;;5033797;28;20449;-71
2022/04/29 14:30:55;;;;;;;17.80;4.20;;;;;;;;;;5033652;28;20867;-71
2022/04/29 14:33:23;;;;;;;14.47;3.90;;;;;;;;;;5033525;28;20436;-72
2022/04/29 14:35:50;;;;;;;16.07;4.20;;;;;;;;;;5033432;28;20946;-72
2022/04/29 14:38:18;;;;;;;14.70;3.73;;;;;;;;;;5034389;28;20506;-71
2022/04/29 14:40:47;;;;;;;17.90;4.13;;;;;;;;;;5033581;28;20449;-72
2022/04/29 14:43:15;;;;;;;16.87;4.93;;;;;;;;;;5033528;28;20463;-72
2022/04/29 14:45:42;;;;;;;14.20;3.43;;;;;;;;;;5033384;28;20442;-72
2022/04/29 14:48:10;;;;;;;15.87;4.00;;;;;;;;;;5033836;28;20517;-72
2022/04/29 14:50:38;;;;;;;21.53;4.50;;;;;;;;;;5033300;28;20480;-71
2022/04/29 14:53:06;;;;;;;15.67;4.60;;;;;;;;;;5033386;28;20445;-71
2022/04/29 14:55:33;;;;;;;17.13;4.37;;;;;;;;;;5032463;28;20472;-72
2022/04/29 14:58:02;;;;;;;14.93;4.57;;;;;;;;;;5033159;28;20814;-71
2022/04/29 15:00:30;;;;;;;15.20;3.93;;;;;;;;;;5033229;28;20498;-72
2022/04/29 15:02:57;;;;;;;16.90;4.67;;;;;;;;;;5033392;28;20784;-72
2022/04/29 15:05:25;;;;;;;14.27;3.83;;;;;;;;;;5032953;28;20808;-72
2022/04/29 15:07:52;;;;;;;15.83;4.40;;;;;;;;;;5033002;28;20445;-72